createdAt,value
2019-02-09T00:00:37.284Z,60.27
2019-02-09T00:03:41.717Z,60.01
2019-02-09T00:06:46.150Z,60.79
2019-02-09T00:09:50.586Z,61.16
2019-02-09T00:12:55.016Z,62.37
2019-02-09T00:15:59.463Z,63.15
2019-02-09T00:19:03.958Z,63.25
2019-02-09T00:22:08.388Z,63.03
2019-02-09T00:25:19.864Z,63.11
2019-02-09T00:28:24.365Z,63.75
2019-02-09T00:31:28.792Z,64.57
2019-02-09T00:34:33.229Z,64.41
2019-02-09T00:37:37.918Z,64.42
2019-02-09T00:40:42.744Z,64.73
2019-02-09T00:43:47.479Z,64.89
2019-02-09T00:46:52.223Z,64.53
2019-02-09T00:49:56.664Z,64.49
2019-02-09T00:53:01.098Z,64.95
2019-02-09T00:56:06.198Z,65.17
2019-02-09T00:59:10.622Z,65.66
2019-02-09T01:02:15.354Z,65.42
2019-02-09T01:05:35.572Z,65.50
2019-02-09T01:08:39.997Z,64.82
2019-02-09T01:11:44.696Z,65.10
2019-02-09T01:14:49.124Z,65.17
2019-02-09T01:17:53.563Z,65.38
2019-02-09T01:20:58.345Z,64.37
2019-02-09T01:24:02.788Z,63.63
2019-02-09T01:27:07.560Z,62.97
2019-02-09T01:30:18.871Z,61.32
2019-02-09T01:33:23.307Z,60.02
2019-02-09T01:36:27.745Z,59.50
2019-02-09T01:39:32.164Z,58.62
2019-02-09T01:42:37.268Z,57.55
2019-02-09T01:45:41.683Z,56.41
2019-02-09T01:48:46.124Z,55.84
2019-02-09T01:51:50.557Z,55.68
2019-02-09T01:54:54.989Z,55.06
2019-02-09T01:58:00.762Z,54.13
2019-02-09T02:01:06.661Z,53.87
2019-02-09T02:04:11.086Z,53.89
2019-02-09T02:07:15.810Z,53.10
2019-02-09T02:10:38.890Z,52.64
2019-02-09T02:13:43.325Z,52.28
2019-02-09T02:16:47.744Z,51.22
2019-02-09T02:19:52.182Z,50.96
2019-02-09T02:22:56.751Z,50.04
2019-02-09T02:26:01.180Z,49.55
2019-02-09T02:29:05.936Z,49.02
2019-02-09T02:32:10.372Z,48.53
2019-02-09T02:35:15.483Z,48.00
2019-02-09T02:38:20.218Z,46.72
2019-02-09T02:41:24.958Z,46.71
2019-02-09T02:44:29.685Z,46.14
2019-02-09T02:47:34.419Z,45.56
2019-02-09T02:50:38.847Z,45.65
2019-02-09T02:53:43.568Z,46.29
2019-02-09T02:56:48.005Z,45.55
2019-02-09T02:59:52.429Z,45.45
2019-02-09T03:02:57.072Z,45.21
2019-02-09T03:06:01.501Z,45.23
2019-02-09T03:09:08.562Z,45.53
2019-02-09T03:12:13.003Z,45.54
2019-02-09T03:15:23.607Z,45.50
2019-02-09T03:18:28.375Z,45.68
2019-02-09T03:21:32.799Z,46.38
2019-02-09T03:24:37.530Z,46.88
2019-02-09T03:27:42.265Z,47.47
2019-02-09T03:30:48.852Z,47.68
2019-02-09T03:33:53.178Z,47.97
2019-02-09T03:36:57.576Z,48.59
2019-02-09T03:40:02.319Z,49.21
2019-02-09T03:43:06.741Z,49.06
2019-02-09T03:46:11.166Z,50.00
2019-02-09T03:49:15.599Z,50.14
2019-02-09T03:52:20.310Z,50.87
2019-02-09T03:55:24.811Z,51.50
2019-02-09T03:58:29.261Z,53.46
2019-02-09T04:01:33.995Z,54.49
2019-02-09T04:04:38.430Z,56.59
2019-02-09T04:07:43.144Z,57.86
2019-02-09T04:10:47.882Z,59.92
2019-02-09T04:13:52.317Z,60.73
2019-02-09T04:16:56.742Z,62.96
2019-02-09T04:20:01.188Z,65.32
2019-02-09T04:23:05.679Z,66.97
2019-02-09T04:26:10.405Z,67.57
2019-02-09T04:29:14.834Z,67.86
2019-02-09T04:32:19.270Z,67.88
2019-02-09T04:35:24.289Z,68.06
2019-02-09T04:38:29.018Z,69.65
2019-02-09T04:41:33.449Z,70.86
2019-02-09T04:44:37.891Z,71.45
2019-02-09T04:47:42.307Z,71.67
2019-02-09T04:50:46.739Z,70.55
2019-02-09T04:53:51.445Z,71.35
2019-02-09T04:56:56.179Z,71.14
2019-02-09T05:00:00.914Z,71.28
2019-02-09T05:03:05.958Z,71.71
2019-02-09T05:06:10.681Z,71.59
2019-02-09T05:09:15.407Z,71.89
2019-02-09T05:12:20.146Z,71.96
2019-02-09T05:15:24.716Z,72.30
2019-02-09T05:18:29.409Z,71.86
2019-02-09T05:21:34.130Z,71.97
2019-02-09T05:24:38.557Z,71.79
2019-02-09T05:27:43.610Z,71.53
2019-02-09T05:30:48.022Z,71.32
2019-02-09T05:33:52.737Z,71.32
2019-02-09T05:36:57.177Z,71.25
2019-02-09T05:40:01.639Z,71.50
2019-02-09T05:43:06.423Z,71.19
2019-02-09T05:46:10.848Z,71.18
2019-02-09T05:49:15.281Z,71.23
2019-02-09T05:52:19.993Z,71.25
2019-02-09T05:55:24.533Z,71.09
2019-02-09T05:58:28.943Z,70.98
2019-02-09T06:01:33.677Z,71.03
2019-02-09T06:04:38.413Z,71.08
2019-02-09T06:07:43.138Z,71.07
2019-02-09T06:10:47.889Z,71.15
2019-02-09T06:13:52.306Z,71.16
2019-02-09T06:16:56.747Z,71.42
2019-02-09T06:20:01.184Z,71.44
2019-02-09T06:23:05.742Z,71.42
2019-02-09T06:26:10.179Z,71.48
2019-02-09T06:29:14.600Z,71.50
2019-02-09T06:32:19.042Z,71.61
2019-02-09T06:35:23.871Z,71.25
2019-02-09T06:38:28.607Z,71.49
2019-02-09T06:41:33.033Z,71.64
2019-02-09T06:44:37.762Z,71.46
2019-02-09T06:47:42.202Z,71.18
2019-02-09T06:50:46.628Z,71.38
2019-02-09T06:53:51.074Z,71.08
2019-02-09T06:56:55.505Z,71.07
2019-02-09T07:00:00.008Z,71.55
2019-02-09T07:03:04.483Z,71.61
2019-02-09T07:06:08.933Z,71.32
2019-02-09T07:09:13.349Z,70.79
2019-02-09T07:12:17.813Z,69.97
2019-02-09T07:15:31.717Z,69.70
2019-02-09T07:18:36.457Z,68.27
2019-02-09T07:21:40.894Z,68.33
2019-02-09T07:24:45.311Z,66.99
2019-02-09T07:27:50.735Z,66.21
2019-02-09T07:30:55.167Z,65.86
2019-02-09T07:33:59.591Z,65.35
2019-02-09T07:37:04.429Z,67.09
2019-02-09T07:40:19.130Z,66.79
2019-02-09T07:43:23.820Z,65.21
2019-02-09T07:46:28.261Z,64.88
2019-02-09T07:49:32.985Z,64.07
2019-02-09T07:52:37.703Z,63.70
2019-02-09T07:55:42.527Z,64.31
2019-02-09T07:59:00.169Z,64.50
2019-02-09T08:02:05.215Z,64.82
2019-02-09T08:05:12.453Z,64.69
2019-02-09T08:08:16.880Z,63.94
2019-02-09T08:11:21.657Z,64.11
2019-02-09T08:14:26.493Z,64.17
2019-02-09T08:17:31.220Z,63.86
2019-02-09T08:20:35.644Z,63.70
2019-02-09T08:23:40.589Z,63.36
2019-02-09T08:26:45.019Z,63.02
2019-02-09T08:29:49.439Z,63.04
2019-02-09T08:32:53.948Z,63.71
2019-02-09T08:35:58.368Z,63.70
2019-02-09T08:39:03.169Z,63.00
2019-02-09T08:42:07.607Z,63.27
2019-02-09T08:45:17.283Z,63.04
2019-02-09T08:48:21.725Z,62.66
2019-02-09T08:51:26.470Z,62.71
2019-02-09T08:54:30.864Z,62.81
2019-02-09T08:57:35.301Z,61.76
2019-02-09T09:00:39.998Z,61.06
2019-02-09T09:03:44.438Z,60.00
2019-02-09T09:06:48.869Z,58.95
2019-02-09T09:09:53.306Z,59.50
2019-02-09T09:13:00.023Z,58.10
2019-02-09T09:16:06.849Z,55.87
2019-02-09T09:19:11.570Z,54.68
2019-02-09T09:22:16.420Z,54.39
2019-02-09T09:25:21.232Z,55.02
2019-02-09T09:28:25.965Z,54.45
2019-02-09T09:31:30.711Z,53.50
2019-02-09T09:34:35.205Z,53.84
2019-02-09T09:37:39.600Z,54.22
2019-02-09T09:40:45.660Z,54.30
2019-02-09T09:43:50.105Z,53.57
2019-02-09T09:46:54.876Z,53.46
2019-02-09T09:49:59.426Z,54.60
2019-02-09T09:53:04.123Z,55.21
2019-02-09T09:56:08.635Z,56.05
2019-02-09T09:59:13.383Z,56.03
2019-02-09T10:02:18.107Z,56.92
2019-02-09T10:05:22.944Z,57.55
2019-02-09T10:08:27.668Z,57.72
2019-02-09T10:11:32.100Z,57.54
2019-02-09T10:14:36.613Z,57.43
2019-02-09T10:17:41.347Z,55.95
2019-02-09T10:20:46.084Z,53.69
2019-02-09T10:23:50.815Z,53.77
2019-02-09T10:26:55.244Z,53.19
2019-02-09T10:29:59.685Z,51.79
2019-02-09T10:33:04.258Z,50.38
2019-02-09T10:36:09.014Z,49.34
2019-02-09T10:39:13.457Z,49.11
2019-02-09T10:42:18.169Z,49.18
2019-02-09T10:45:25.721Z,49.09
2019-02-09T10:48:30.150Z,48.32
2019-02-09T10:51:34.593Z,48.98
2019-02-09T10:54:39.037Z,47.28
2019-02-09T10:57:44.088Z,47.81
2019-02-09T11:00:58.722Z,48.52
2019-02-09T11:04:03.480Z,48.29
2019-02-09T11:07:08.186Z,49.25
2019-02-09T11:10:17.113Z,48.62
2019-02-09T11:13:21.871Z,49.26
2019-02-09T11:16:26.304Z,49.28
2019-02-09T11:19:30.747Z,48.07
2019-02-09T11:22:35.444Z,47.53
2019-02-09T11:25:39.889Z,47.27
2019-02-09T11:28:44.324Z,46.77
2019-02-09T11:31:48.763Z,47.40
2019-02-09T11:34:53.210Z,48.00
2019-02-09T11:37:57.973Z,47.40
2019-02-09T11:41:02.421Z,48.30
2019-02-09T11:44:06.913Z,47.75
2019-02-09T11:47:11.357Z,47.96
2019-02-09T11:50:16.840Z,46.26
2019-02-09T11:53:21.626Z,45.89
2019-02-09T11:56:26.082Z,45.19
2019-02-09T11:59:30.507Z,46.53
2019-02-09T12:02:35.944Z,44.82
2019-02-09T12:05:40.937Z,43.83
2019-02-09T12:08:45.691Z,42.55
2019-02-09T12:11:50.507Z,42.52
2019-02-09T12:14:55.003Z,41.28
2019-02-09T12:17:59.449Z,41.93
2019-02-09T12:21:03.948Z,41.57
2019-02-09T12:24:08.812Z,40.19
2019-02-09T12:27:13.696Z,39.41
2019-02-09T12:30:25.312Z,40.91
2019-02-09T12:33:30.056Z,40.66
2019-02-09T12:36:34.758Z,40.87
2019-02-09T12:39:39.253Z,41.42
2019-02-09T12:42:43.698Z,41.10
2019-02-09T12:45:48.142Z,40.46
2019-02-09T12:48:52.580Z,40.81
2019-02-09T12:51:57.106Z,40.06
2019-02-09T12:55:01.829Z,40.37
2019-02-09T12:58:07.355Z,41.00
2019-02-09T13:01:12.245Z,42.09
2019-02-09T13:04:16.983Z,41.89
2019-02-09T13:07:21.426Z,42.91
2019-02-09T13:10:25.999Z,44.11
2019-02-09T13:13:30.442Z,45.92
2019-02-09T13:16:34.906Z,46.00
2019-02-09T13:19:39.625Z,47.35
2019-02-09T13:22:44.343Z,48.18
2019-02-09T13:25:49.346Z,48.40
2019-02-09T13:28:53.812Z,48.71
2019-02-09T13:31:58.325Z,48.87
2019-02-09T13:35:02.825Z,49.42
2019-02-09T13:38:07.594Z,48.97
2019-02-09T13:41:12.379Z,48.77
2019-02-09T13:44:17.157Z,49.66
2019-02-09T13:47:21.599Z,49.83
2019-02-09T13:50:27.038Z,49.82
2019-02-09T13:53:31.484Z,49.68
2019-02-09T13:56:35.942Z,50.16
2019-02-09T13:59:40.711Z,49.98
2019-02-09T14:02:45.240Z,49.82
2019-02-09T14:05:49.672Z,49.25
2019-02-09T14:08:54.189Z,48.97
2019-02-09T14:11:58.916Z,49.37
2019-02-09T14:15:03.839Z,49.03
2019-02-09T14:18:11.754Z,49.30
2019-02-09T14:21:16.489Z,49.66
2019-02-09T14:24:21.247Z,50.45
2019-02-09T14:27:27.191Z,50.60
2019-02-09T14:30:38.965Z,50.56
2019-02-09T14:33:43.403Z,51.76
2019-02-09T14:36:47.975Z,51.31
2019-02-09T14:39:52.454Z,52.23
2019-02-09T14:42:57.038Z,52.58
2019-02-09T14:46:01.467Z,51.96
2019-02-09T14:49:06.227Z,52.35
2019-02-09T14:52:10.661Z,51.59
2019-02-09T14:55:31.979Z,51.90
2019-02-09T14:58:36.420Z,51.54
2019-02-09T15:01:41.528Z,52.32
2019-02-09T15:04:46.370Z,52.06
2019-02-09T15:07:51.110Z,52.62
2019-02-09T15:10:55.547Z,52.40
2019-02-09T15:14:00.370Z,52.34
2019-02-09T15:17:05.762Z,52.15
2019-02-09T15:20:20.776Z,52.70
2019-02-09T15:23:25.508Z,52.75
2019-02-09T15:26:30.013Z,52.21
2019-02-09T15:29:34.461Z,52.26
2019-02-09T15:32:38.909Z,52.60
2019-02-09T15:35:43.616Z,52.57
2019-02-09T15:38:48.342Z,53.06
2019-02-09T15:41:53.075Z,52.90
2019-02-09T15:44:57.831Z,53.13
2019-02-09T15:48:02.548Z,53.08
2019-02-09T15:51:07.046Z,52.91
2019-02-09T15:54:11.789Z,52.90
2019-02-09T15:57:16.222Z,52.93
2019-02-09T16:00:32.021Z,53.19
2019-02-09T16:03:36.842Z,53.52
2019-02-09T16:06:41.276Z,53.76
2019-02-09T16:09:45.773Z,53.72
2019-02-09T16:12:50.451Z,53.96
2019-02-09T16:15:54.900Z,54.19
2019-02-09T16:18:59.672Z,54.64
2019-02-09T16:22:04.525Z,55.17
2019-02-09T16:25:10.990Z,55.79
2019-02-09T16:28:15.710Z,57.06
2019-02-09T16:31:20.154Z,58.52
2019-02-09T16:34:25.757Z,59.40
2019-02-09T16:37:30.347Z,60.11
2019-02-09T16:40:36.834Z,59.19
2019-02-09T16:43:41.851Z,59.37
2019-02-09T16:46:46.417Z,58.32
2019-02-09T16:49:50.863Z,58.30
2019-02-09T16:52:55.297Z,58.31
2019-02-09T16:56:00.041Z,58.62
2019-02-09T16:59:04.650Z,58.69
2019-02-09T17:02:09.079Z,58.86
2019-02-09T17:05:13.959Z,58.29
2019-02-09T17:08:18.388Z,58.34
2019-02-09T17:11:22.973Z,58.00
2019-02-09T17:14:27.409Z,57.39
2019-02-09T17:17:31.836Z,57.61
2019-02-09T17:20:36.569Z,57.25
2019-02-09T17:23:41.009Z,57.19
2019-02-09T17:26:45.695Z,57.34
2019-02-09T17:29:50.135Z,57.24
2019-02-09T17:32:54.624Z,57.35
2019-02-09T17:35:59.054Z,57.94
2019-02-09T17:39:04.231Z,57.11
2019-02-09T17:42:08.716Z,57.32
2019-02-09T17:45:23.702Z,57.04
2019-02-09T17:48:28.144Z,56.92
2019-02-09T17:51:32.865Z,56.40
2019-02-09T17:54:37.308Z,56.63
2019-02-09T17:57:42.031Z,55.57
2019-02-09T18:00:54.030Z,55.34
2019-02-09T18:04:00.205Z,54.94
2019-02-09T18:07:05.115Z,55.01
2019-02-09T18:10:16.520Z,54.18
2019-02-09T18:13:20.941Z,53.98
2019-02-09T18:16:25.438Z,54.10
2019-02-09T18:19:30.181Z,53.79
2019-02-09T18:22:34.679Z,53.42
2019-02-09T18:25:39.188Z,53.41
2019-02-09T18:28:43.963Z,53.34
2019-02-09T18:31:48.407Z,53.27
2019-02-09T18:34:56.107Z,53.31
2019-02-09T18:37:59.276Z,53.32
2019-02-09T18:41:04.013Z,53.15
2019-02-09T18:44:09.668Z,53.17
2019-02-09T18:47:14.398Z,53.44
2019-02-09T18:50:28.163Z,53.46
2019-02-09T18:53:32.969Z,53.03
2019-02-09T18:56:37.809Z,53.27
2019-02-09T18:59:42.640Z,53.59
2019-02-09T19:02:47.238Z,53.52
2019-02-09T19:05:51.671Z,53.58
2019-02-09T19:08:56.097Z,53.93
2019-02-09T19:12:00.532Z,54.21
2019-02-09T19:15:10.282Z,54.35
2019-02-09T19:18:14.856Z,53.90
2019-02-09T19:21:19.336Z,54.47
2019-02-09T19:24:24.073Z,54.35
2019-02-09T19:27:28.586Z,54.26
2019-02-09T19:30:33.445Z,54.44
2019-02-09T19:33:38.161Z,54.55
2019-02-09T19:36:42.905Z,54.26
2019-02-09T19:39:48.029Z,54.59
2019-02-09T19:42:52.794Z,54.52
2019-02-09T19:45:57.631Z,54.82
2019-02-09T19:49:02.525Z,54.38
2019-02-09T19:52:06.979Z,54.70
2019-02-09T19:55:27.864Z,54.76
2019-02-09T19:58:32.325Z,54.87
2019-02-09T20:01:38.164Z,54.30
2019-02-09T20:04:43.071Z,54.24
2019-02-09T20:07:47.561Z,54.56
2019-02-09T20:10:52.236Z,55.10
2019-02-09T20:13:56.966Z,55.45
2019-02-09T20:17:02.300Z,55.96
2019-02-09T20:20:14.425Z,56.04
2019-02-09T20:23:18.847Z,57.07
2019-02-09T20:26:23.613Z,57.16
2019-02-09T20:29:28.006Z,57.37
2019-02-09T20:32:32.431Z,57.95
2019-02-09T20:35:37.467Z,58.06
2019-02-09T20:38:42.238Z,58.62
2019-02-09T20:41:46.686Z,58.94
2019-02-09T20:44:51.544Z,59.35
2019-02-09T20:47:57.898Z,59.82
2019-02-09T20:51:02.301Z,60.12
2019-02-09T20:54:07.584Z,60.58
2019-02-09T20:57:12.319Z,60.47
2019-02-09T21:00:27.175Z,60.27
2019-02-09T21:03:31.924Z,60.40
2019-02-09T21:06:36.542Z,61.11
2019-02-09T21:09:41.003Z,61.28
2019-02-09T21:12:45.693Z,61.53
2019-02-09T21:15:50.525Z,61.46
2019-02-09T21:18:55.008Z,61.96
2019-02-09T21:21:59.440Z,61.87
2019-02-09T21:25:05.131Z,61.77
2019-02-09T21:28:10.066Z,62.19
2019-02-09T21:31:14.550Z,62.59
2019-02-09T21:34:18.934Z,63.34
2019-02-09T21:37:23.371Z,63.05
2019-02-09T21:40:32.620Z,63.78
2019-02-09T21:43:37.112Z,64.09
2019-02-09T21:46:42.162Z,64.01
2019-02-09T21:49:46.626Z,64.73
2019-02-09T21:52:51.097Z,65.23
2019-02-09T21:55:55.592Z,65.11
2019-02-09T21:59:00.352Z,65.47
2019-02-09T22:02:04.959Z,65.88
2019-02-09T22:05:12.152Z,66.29
2019-02-09T22:08:19.943Z,66.52
2019-02-09T22:11:24.657Z,66.96
2019-02-09T22:14:29.413Z,66.89
2019-02-09T22:17:33.905Z,67.04
2019-02-09T22:20:38.479Z,66.86
2019-02-09T22:23:43.264Z,66.70
2019-02-09T22:26:47.817Z,66.30
2019-02-09T22:29:52.559Z,65.83
2019-02-09T22:32:57.788Z,65.88
2019-02-09T22:36:02.308Z,65.31
2019-02-09T22:39:08.445Z,64.89
2019-02-09T22:42:12.887Z,64.85
2019-02-09T22:45:20.326Z,65.17
2019-02-09T22:48:24.754Z,65.33
2019-02-09T22:51:29.578Z,65.67
2019-02-09T22:54:34.001Z,65.80
2019-02-09T22:57:38.731Z,65.93
2019-02-09T23:00:55.927Z,66.22
2019-02-09T23:04:22.905Z,66.48
2019-02-09T23:07:27.640Z,66.81
2019-02-09T23:10:32.066Z,66.95
2019-02-09T23:13:36.510Z,67.43
2019-02-09T23:16:40.952Z,67.32
2019-02-09T23:19:45.380Z,67.49
2019-02-09T23:22:49.815Z,67.87
2019-02-09T23:25:55.048Z,67.28
2019-02-09T23:28:59.553Z,67.07
2019-02-09T23:32:04.250Z,66.65
2019-02-09T23:35:08.745Z,66.67
2019-02-09T23:38:13.172Z,66.75
2019-02-09T23:41:17.602Z,66.69
2019-02-09T23:44:22.039Z,66.77
2019-02-09T23:47:26.472Z,66.42
2019-02-09T23:50:31.203Z,66.61
2019-02-09T23:53:35.638Z,66.65
2019-02-09T23:56:40.358Z,66.62
2019-02-09T23:59:44.794Z,67.06
